createdAt,value
2023-05-16T00:01:16.544Z,14.27
2023-05-16T00:03:45.622Z,15.53
2023-05-16T00:06:13.986Z,15.57
2023-05-16T00:08:41.973Z,16.03
2023-05-16T00:11:09.864Z,16.07
2023-05-16T00:13:38.841Z,15.53
2023-05-16T00:16:07.219Z,17.90
2023-05-16T00:18:37.570Z,16.33
2023-05-16T00:21:05.799Z,17.47
2023-05-16T00:23:34.807Z,18.30
2023-05-16T00:26:02.697Z,17.10
2023-05-16T00:28:30.597Z,16.67
2023-05-16T00:30:59.284Z,17.17
2023-05-16T00:33:27.258Z,18.93
2023-05-16T00:35:56.481Z,17.73
2023-05-16T00:38:26.127Z,17.20
2023-05-16T00:40:54.353Z,18.80
2023-05-16T00:43:22.304Z,18.43
2023-05-16T00:45:51.959Z,17.40
2023-05-16T00:48:20.473Z,18.50
2023-05-16T00:50:49.437Z,17.87
2023-05-16T00:53:18.765Z,17.43
2023-05-16T00:55:48.527Z,17.70
2023-05-16T00:58:17.519Z,16.00
2023-05-16T01:00:48.840Z,15.67
2023-05-16T01:03:17.188Z,14.63
2023-05-16T01:05:45.661Z,14.70
2023-05-16T01:08:13.958Z,13.43
2023-05-16T01:11:01.477Z,13.00
2023-05-16T01:13:42.540Z,12.30
2023-05-16T01:16:18.920Z,12.10
2023-05-16T01:19:00.915Z,12.07
2023-05-16T01:21:46.492Z,10.73
2023-05-16T01:24:24.557Z,12.03
2023-05-16T01:26:55.367Z,11.80
2023-05-16T01:29:23.696Z,11.17
2023-05-16T01:31:51.599Z,11.03
2023-05-16T01:34:19.957Z,9.97
2023-05-16T01:37:01.508Z,11.20
2023-05-16T01:39:41.559Z,10.43
2023-05-16T01:42:15.510Z,10.53
2023-05-16T01:44:51.829Z,10.33
2023-05-16T01:47:27.665Z,10.80
2023-05-16T01:50:04.992Z,10.30
2023-05-16T01:52:41.613Z,9.00
2023-05-16T01:55:16.813Z,9.47
2023-05-16T01:57:47.484Z,9.60
2023-05-16T02:00:16.150Z,8.87
2023-05-16T02:02:44.047Z,9.60
2023-05-16T02:05:11.960Z,9.00
2023-05-16T02:07:41.187Z,7.97
2023-05-16T02:10:10.662Z,9.17
2023-05-16T02:12:38.558Z,9.53
2023-05-16T02:15:09.906Z,9.73
2023-05-16T02:17:37.933Z,9.13
2023-05-16T02:20:09.561Z,9.07
2023-05-16T02:22:39.179Z,8.73
2023-05-16T02:25:08.872Z,8.43
2023-05-16T02:27:37.051Z,9.60
2023-05-16T02:30:07.577Z,9.63
2023-05-16T02:32:35.905Z,9.67
2023-05-16T02:35:08.046Z,9.13
2023-05-16T02:37:36.217Z,8.93
2023-05-16T02:40:05.633Z,9.57
2023-05-16T02:42:33.524Z,10.73
2023-05-16T02:45:01.529Z,10.33
2023-05-16T02:47:30.769Z,10.70
2023-05-16T02:49:58.998Z,11.07
2023-05-16T02:52:27.655Z,11.90
2023-05-16T02:55:16.028Z,11.13
2023-05-16T02:57:44.640Z,10.43
2023-05-16T03:00:17.752Z,11.80
2023-05-16T03:02:48.412Z,11.40
2023-05-16T03:05:17.013Z,10.67
2023-05-16T03:07:44.957Z,11.03
2023-05-16T03:10:12.820Z,10.87
2023-05-16T03:12:40.720Z,10.97
2023-05-16T03:15:10.159Z,10.23
2023-05-16T03:17:38.109Z,11.03
2023-05-16T03:20:11.145Z,9.50
2023-05-16T03:22:40.354Z,10.33
2023-05-16T03:25:09.183Z,11.30
2023-05-16T03:27:38.971Z,10.00
2023-05-16T03:30:09.328Z,9.90
2023-05-16T03:32:39.559Z,8.53
2023-05-16T03:35:11.945Z,9.17
2023-05-16T03:37:40.469Z,9.20
2023-05-16T03:40:11.177Z,9.63
2023-05-16T03:42:39.403Z,9.53
2023-05-16T03:45:09.049Z,10.27
2023-05-16T03:47:37.355Z,9.07
2023-05-16T03:50:08.415Z,10.53
2023-05-16T03:52:36.744Z,9.37
2023-05-16T03:55:05.923Z,9.33
2023-05-16T03:57:34.961Z,9.73
2023-05-16T04:00:07.041Z,8.67
2023-05-16T04:02:41.451Z,9.13
2023-05-16T04:05:13.883Z,9.87
2023-05-16T04:07:41.984Z,8.93
2023-05-16T04:10:11.787Z,9.13
2023-05-16T04:12:39.667Z,9.73
2023-05-16T04:15:09.061Z,9.63
2023-05-16T04:17:37.204Z,9.30
2023-05-16T04:20:10.709Z,9.10
2023-05-16T04:22:38.726Z,8.70
2023-05-16T04:25:08.166Z,8.90
2023-05-16T04:27:36.115Z,8.40
2023-05-16T04:30:04.312Z,8.90
2023-05-16T04:32:35.231Z,9.73
2023-05-16T04:35:03.965Z,9.53
2023-05-16T04:37:33.527Z,9.43
2023-05-16T04:40:01.408Z,10.80
2023-05-16T04:42:29.371Z,9.20
2023-05-16T04:44:58.544Z,10.50
2023-05-16T04:47:26.471Z,9.57
2023-05-16T04:49:54.647Z,9.07
2023-05-16T04:52:22.512Z,8.87
2023-05-16T04:54:53.314Z,8.67
2023-05-16T04:57:21.180Z,8.00
2023-05-16T04:59:49.048Z,8.40
2023-05-16T05:02:17.014Z,7.80
2023-05-16T05:04:45.078Z,7.60
2023-05-16T05:07:13.947Z,7.53
2023-05-16T05:09:42.614Z,8.40
2023-05-16T05:12:12.491Z,8.73
2023-05-16T05:14:40.738Z,8.67
2023-05-16T05:17:08.705Z,8.13
2023-05-16T05:19:36.773Z,8.50
2023-05-16T05:22:05.194Z,8.90
2023-05-16T05:24:33.059Z,9.37
2023-05-16T05:27:01.014Z,8.37
2023-05-16T05:29:30.209Z,9.20
2023-05-16T05:31:58.163Z,8.30
2023-05-16T05:34:26.172Z,9.00
2023-05-16T05:36:54.043Z,7.80
2023-05-16T05:39:21.969Z,6.60
2023-05-16T05:41:49.841Z,6.77
2023-05-16T05:44:17.751Z,6.50
2023-05-16T05:46:47.109Z,5.93
2023-05-16T05:49:15.321Z,6.17
2023-05-16T05:51:43.584Z,5.23
2023-05-16T05:54:11.563Z,5.10
2023-05-16T05:56:39.737Z,5.63
2023-05-16T05:59:08.562Z,4.70
2023-05-16T06:01:36.614Z,4.87
2023-05-16T06:04:06.750Z,4.00
2023-05-16T06:06:35.046Z,3.73
2023-05-16T06:09:02.930Z,3.90
2023-05-16T06:11:30.889Z,3.67
2023-05-16T06:13:58.774Z,3.53
2023-05-16T06:16:27.374Z,3.40
2023-05-16T06:18:55.545Z,3.50
2023-05-16T06:21:25.081Z,3.70
2023-05-16T06:23:53.026Z,3.67
2023-05-16T06:26:22.704Z,3.47
2023-05-16T06:28:50.616Z,3.27
2023-05-16T06:31:18.550Z,3.33
2023-05-16T06:33:46.515Z,3.30
2023-05-16T06:36:14.703Z,3.30
2023-05-16T06:38:44.620Z,3.20
2023-05-16T06:41:12.634Z,3.30
2023-05-16T06:43:42.880Z,3.10
2023-05-16T06:46:11.091Z,3.83
2023-05-16T06:48:39.063Z,3.23
2023-05-16T06:51:07.089Z,3.10
2023-05-16T06:53:35.050Z,3.67
2023-05-16T06:56:04.886Z,3.63
2023-05-16T06:58:32.995Z,3.00
2023-05-16T07:01:16.502Z,3.33
2023-05-16T07:03:44.601Z,2.73
2023-05-16T07:06:12.697Z,3.20
2023-05-16T07:08:40.927Z,3.33
2023-05-16T07:11:11.539Z,3.13
2023-05-16T07:13:39.476Z,2.97
2023-05-16T07:16:08.479Z,3.37
2023-05-16T07:18:39.608Z,3.77
2023-05-16T07:21:07.895Z,3.80
2023-05-16T07:23:35.883Z,4.13
2023-05-16T07:26:04.666Z,4.00
2023-05-16T07:28:33.944Z,4.40
2023-05-16T07:31:01.864Z,4.27
2023-05-16T07:33:29.800Z,3.80
2023-05-16T07:36:12.218Z,3.80
2023-05-16T07:38:44.051Z,3.87
2023-05-16T07:41:12.052Z,3.47
2023-05-16T07:43:41.618Z,3.27
2023-05-16T07:46:09.627Z,3.40
2023-05-16T07:48:38.269Z,3.47
2023-05-16T07:51:06.271Z,3.10
2023-05-16T07:53:34.575Z,2.83
2023-05-16T07:56:02.553Z,2.80
2023-05-16T07:58:30.744Z,2.90
2023-05-16T08:01:00.399Z,2.90
2023-05-16T08:03:28.508Z,2.67
2023-05-16T08:05:58.064Z,3.37
2023-05-16T08:08:26.198Z,3.20
2023-05-16T08:10:54.115Z,3.23
2023-05-16T08:13:22.354Z,2.77
2023-05-16T08:15:50.647Z,3.23
2023-05-16T08:18:22.296Z,2.80
2023-05-16T08:20:51.286Z,3.57
2023-05-16T08:23:20.081Z,2.70
2023-05-16T08:25:48.391Z,3.03
2023-05-16T08:28:16.681Z,3.23
2023-05-16T08:30:45.829Z,2.90
2023-05-16T08:33:16.037Z,2.80
2023-05-16T08:35:46.296Z,3.47
2023-05-16T08:38:14.615Z,2.93
2023-05-16T08:40:45.348Z,3.10
2023-05-16T08:43:14.044Z,3.20
2023-05-16T08:45:42.551Z,2.60
2023-05-16T08:48:12.393Z,2.63
2023-05-16T08:50:42.707Z,2.83
2023-05-16T08:53:18.535Z,2.70
2023-05-16T08:55:49.349Z,2.13
2023-05-16T08:58:19.090Z,2.07
2023-05-16T09:00:47.964Z,1.87
2023-05-16T09:03:16.300Z,1.80
2023-05-16T09:05:44.355Z,2.07
2023-05-16T09:08:13.682Z,1.80
2023-05-16T09:10:41.575Z,1.70
2023-05-16T09:13:09.552Z,2.10
2023-05-16T09:15:37.511Z,1.90
2023-05-16T09:18:05.603Z,1.93
2023-05-16T09:20:34.352Z,1.77
2023-05-16T09:23:03.307Z,2.80
2023-05-16T09:25:33.006Z,2.30
2023-05-16T09:28:03.312Z,1.90
2023-05-16T09:30:34.856Z,2.67
2023-05-16T09:33:03.763Z,1.50
2023-05-16T09:38:03.832Z,1.97
2023-05-16T09:40:33.217Z,2.00
2023-05-16T09:43:06.827Z,1.70
2023-05-16T09:45:37.110Z,2.03
2023-05-16T09:48:07.526Z,2.00
2023-05-16T09:50:37.193Z,2.23
2023-05-16T09:53:06.222Z,1.83
2023-05-16T09:55:36.246Z,2.33
2023-05-16T09:58:04.184Z,2.13
2023-05-16T10:00:34.789Z,2.13
2023-05-16T10:03:05.645Z,1.90
2023-05-16T10:05:36.403Z,1.90
2023-05-16T10:08:05.609Z,2.07
2023-05-16T10:10:39.843Z,2.03
2023-05-16T10:13:11.560Z,3.20
2023-05-16T10:15:41.317Z,2.37
2023-05-16T10:18:13.479Z,2.03
2023-05-16T10:20:45.350Z,1.50
2023-05-16T10:23:20.246Z,2.50
2023-05-16T10:25:50.679Z,1.63
2023-05-16T10:28:19.593Z,1.80
2023-05-16T10:30:48.733Z,1.50
2023-05-16T10:33:18.851Z,1.97
2023-05-16T10:35:47.627Z,1.70
2023-05-16T10:38:20.403Z,1.43
2023-05-16T10:40:51.632Z,2.00
2023-05-16T10:43:28.086Z,1.30
2023-05-16T10:45:57.729Z,1.30
2023-05-16T10:48:34.161Z,1.70
2023-05-16T10:51:03.902Z,1.60
2023-05-16T10:53:34.531Z,1.50
2023-05-16T10:56:14.320Z,1.67
2023-05-16T10:58:44.263Z,1.67
2023-05-16T11:01:21.566Z,1.10
2023-05-16T11:04:15.171Z,1.40
2023-05-16T11:07:02.606Z,1.37
2023-05-16T11:09:30.549Z,1.40
2023-05-16T11:12:03.255Z,1.33
2023-05-16T11:14:39.926Z,1.50
2023-05-16T11:17:13.624Z,1.40
2023-05-16T11:19:45.100Z,1.43
2023-05-16T11:22:25.983Z,1.63
2023-05-16T11:24:58.579Z,1.30
2023-05-16T11:27:30.919Z,1.77
2023-05-16T11:30:13.106Z,1.37
2023-05-16T11:32:43.301Z,1.80
2023-05-16T11:35:15.357Z,1.13
2023-05-16T11:37:44.209Z,1.30
2023-05-16T11:40:14.729Z,1.00
2023-05-16T11:42:47.540Z,1.23
2023-05-16T11:45:18.129Z,0.97
2023-05-16T11:47:49.189Z,1.23
2023-05-16T11:50:20.110Z,1.20
2023-05-16T11:52:53.477Z,1.40
2023-05-16T11:55:39.444Z,0.97
2023-05-16T11:58:12.206Z,1.40
2023-05-16T12:00:49.861Z,1.07
2023-05-16T12:03:20.302Z,1.37
2023-05-16T12:05:53.175Z,1.00
2023-05-16T12:08:24.678Z,1.10
2023-05-16T12:10:54.559Z,1.40
2023-05-16T12:13:26.313Z,1.20
2023-05-16T12:15:54.836Z,1.60
2023-05-16T12:18:25.232Z,1.00
2023-05-16T12:20:53.649Z,1.00
2023-05-16T12:23:21.825Z,1.53
2023-05-16T12:25:49.971Z,1.63
2023-05-16T12:28:17.888Z,1.10
2023-05-16T12:30:48.000Z,1.10
2023-05-16T12:33:17.668Z,1.10
2023-05-16T12:35:48.520Z,1.13
2023-05-16T12:38:18.099Z,1.40
2023-05-16T12:40:48.265Z,1.00
2023-05-16T12:43:20.116Z,1.60
2023-05-16T12:45:53.687Z,0.90
2023-05-16T12:48:22.131Z,1.07
2023-05-16T12:50:50.613Z,1.20
2023-05-16T12:53:20.068Z,1.33
2023-05-16T12:55:48.682Z,1.13
2023-05-16T12:58:16.963Z,1.23
2023-05-16T13:00:44.927Z,0.90
2023-05-16T13:03:14.638Z,0.97
2023-05-16T13:05:42.851Z,0.83
2023-05-16T13:08:10.856Z,1.30
2023-05-16T13:10:38.963Z,1.40
2023-05-16T13:13:06.969Z,1.63
2023-05-16T13:15:34.884Z,1.10
2023-05-16T13:18:03.013Z,0.93
2023-05-16T13:20:32.604Z,0.90
2023-05-16T13:23:00.649Z,0.90
2023-05-16T13:25:28.812Z,1.07
2023-05-16T13:27:57.334Z,0.90
2023-05-16T13:30:28.919Z,0.70
2023-05-16T13:32:57.051Z,1.10
2023-05-16T13:35:25.164Z,1.63
2023-05-16T13:37:54.732Z,0.90
2023-05-16T13:40:23.180Z,0.87
2023-05-16T13:42:51.690Z,0.70
2023-05-16T13:45:19.656Z,0.70
2023-05-16T13:47:48.339Z,1.00
2023-05-16T13:50:16.401Z,0.80
2023-05-16T13:52:44.519Z,1.10
2023-05-16T13:55:14.000Z,1.10
2023-05-16T13:57:41.988Z,0.80
2023-05-16T14:02:44.383Z,0.90
2023-05-16T14:05:12.512Z,0.90
2023-05-16T14:07:41.310Z,0.90
2023-05-16T14:10:10.672Z,0.90
2023-05-16T14:12:40.200Z,1.10
2023-05-16T14:15:09.836Z,1.03
2023-05-16T14:17:38.081Z,1.00
2023-05-16T14:20:10.190Z,1.00
2023-05-16T14:22:39.584Z,0.97
2023-05-16T14:25:08.995Z,1.07
2023-05-16T14:27:36.893Z,0.70
2023-05-16T14:30:09.495Z,0.90
2023-05-16T14:32:37.699Z,0.93
2023-05-16T14:35:06.657Z,0.70
2023-05-16T14:37:34.634Z,0.93
2023-05-16T14:40:02.644Z,0.70
2023-05-16T14:42:31.261Z,1.00
2023-05-16T14:44:59.210Z,0.93
2023-05-16T14:47:31.152Z,1.00
2023-05-16T14:49:59.440Z,1.00
2023-05-16T14:52:29.450Z,0.90
2023-05-16T14:54:57.514Z,1.37
2023-05-16T14:57:25.734Z,0.80
2023-05-16T14:59:56.925Z,1.00
2023-05-16T15:02:26.744Z,1.00
2023-05-16T15:04:56.655Z,0.80
2023-05-16T15:07:25.293Z,0.90
2023-05-16T15:09:53.266Z,0.80
2023-05-16T15:12:21.720Z,0.97
2023-05-16T15:14:49.785Z,1.07
2023-05-16T15:17:17.841Z,0.80
2023-05-16T15:19:47.776Z,1.17
2023-05-16T15:22:17.100Z,1.33
2023-05-16T15:24:45.120Z,0.90
2023-05-16T15:27:13.424Z,1.30
2023-05-16T15:29:41.585Z,1.10
2023-05-16T15:32:11.257Z,1.37
2023-05-16T15:34:39.282Z,1.00
2023-05-16T15:37:07.353Z,1.23
2023-05-16T15:39:37.049Z,1.50
2023-05-16T15:42:10.582Z,1.20
2023-05-16T15:44:40.025Z,1.30
2023-05-16T15:47:08.987Z,1.40
2023-05-16T15:49:37.260Z,1.27
2023-05-16T15:52:06.098Z,1.17
2023-05-16T15:54:36.539Z,1.23
2023-05-16T15:57:04.920Z,1.20
2023-05-16T15:59:33.144Z,1.30
2023-05-16T16:02:04.152Z,1.57
2023-05-16T16:04:32.585Z,1.00
2023-05-16T16:07:03.363Z,1.37
2023-05-16T16:09:31.376Z,1.10
2023-05-16T16:12:00.628Z,1.30
2023-05-16T16:14:28.528Z,1.13
2023-05-16T16:16:56.764Z,1.10
2023-05-16T16:19:26.698Z,1.23
2023-05-16T16:21:57.589Z,1.30
2023-05-16T16:24:25.549Z,1.10
2023-05-16T16:26:53.697Z,1.10
2023-05-16T16:29:23.128Z,1.10
2023-05-16T16:31:51.146Z,1.17
2023-05-16T16:34:20.998Z,1.40
2023-05-16T16:36:50.995Z,1.20
2023-05-16T16:39:18.917Z,1.20
2023-05-16T16:41:46.926Z,1.00
2023-05-16T16:44:15.016Z,1.00
2023-05-16T16:46:44.379Z,1.20
2023-05-16T16:49:12.497Z,1.03
2023-05-16T16:51:41.777Z,1.00
2023-05-16T16:54:09.674Z,0.90
2023-05-16T16:56:37.585Z,1.00
2023-05-16T16:59:08.156Z,1.00
2023-05-16T17:01:36.903Z,1.00
2023-05-16T17:04:06.493Z,1.20
2023-05-16T17:06:34.981Z,1.60
2023-05-16T17:09:05.165Z,1.30
2023-05-16T17:11:36.151Z,1.10
2023-05-16T17:14:06.094Z,1.10
2023-05-16T17:16:34.370Z,2.00
2023-05-16T17:19:02.441Z,0.90
2023-05-16T17:21:34.507Z,1.13
2023-05-16T17:24:02.422Z,0.90
2023-05-16T17:26:31.605Z,1.20
2023-05-16T17:29:00.190Z,1.17
2023-05-16T17:31:28.997Z,1.27
2023-05-16T17:33:57.898Z,0.83
2023-05-16T17:36:25.819Z,0.77
2023-05-16T17:38:55.106Z,1.03
2023-05-16T17:41:23.113Z,0.90
2023-05-16T17:43:51.099Z,0.90
2023-05-16T17:46:19.366Z,2.00
2023-05-16T17:48:47.355Z,0.87
2023-05-16T17:51:15.297Z,1.00
2023-05-16T17:53:44.266Z,1.00
2023-05-16T17:56:14.015Z,0.83
2023-05-16T17:58:42.481Z,0.80
2023-05-16T18:01:10.490Z,1.00
2023-05-16T18:03:39.463Z,0.80
2023-05-16T18:06:07.990Z,0.80
2023-05-16T18:08:36.624Z,0.80
2023-05-16T18:11:05.085Z,0.97
2023-05-16T18:13:34.835Z,0.80
2023-05-16T18:16:03.680Z,0.90
2023-05-16T18:18:31.799Z,0.80
2023-05-16T18:20:59.755Z,0.87
2023-05-16T18:23:27.942Z,0.80
2023-05-16T18:25:58.791Z,0.80
2023-05-16T18:28:26.841Z,0.90
2023-05-16T18:30:56.373Z,0.83
2023-05-16T18:33:24.309Z,1.23
2023-05-16T18:35:52.255Z,0.80
2023-05-16T18:38:31.413Z,1.00
2023-05-16T18:41:01.128Z,0.87
2023-05-16T18:43:29.629Z,0.83
2023-05-16T18:45:59.099Z,1.07
2023-05-16T18:48:27.108Z,1.00
2023-05-16T18:50:55.849Z,0.90
2023-05-16T18:53:24.142Z,0.83
2023-05-16T18:55:52.118Z,1.20
2023-05-16T18:58:20.091Z,0.90
2023-05-16T19:00:48.171Z,1.17
2023-05-16T19:03:17.708Z,1.60
2023-05-16T19:05:46.314Z,1.07
2023-05-16T19:08:14.411Z,0.87
2023-05-16T19:10:42.710Z,1.00
2023-05-16T19:13:10.725Z,1.00
2023-05-16T19:15:39.258Z,0.90
2023-05-16T19:18:07.533Z,1.27
2023-05-16T19:20:37.062Z,1.20
2023-05-16T19:23:05.028Z,1.00
2023-05-16T19:25:33.375Z,1.10
2023-05-16T19:28:01.465Z,1.03
2023-05-16T19:30:29.740Z,1.03
2023-05-16T19:32:57.859Z,0.80
2023-05-16T19:35:26.178Z,1.10
2023-05-16T19:37:56.301Z,0.97
2023-05-16T19:40:24.274Z,1.00
2023-05-16T19:42:52.298Z,1.20
2023-05-16T19:45:20.431Z,1.10
2023-05-16T19:47:48.420Z,1.03
2023-05-16T19:50:16.611Z,1.30
2023-05-16T19:52:44.529Z,1.07
2023-05-16T19:55:14.082Z,1.40
2023-05-16T19:57:42.000Z,1.20
2023-05-16T20:00:11.917Z,1.03
2023-05-16T20:02:43.154Z,0.90
2023-05-16T20:05:11.525Z,1.00
2023-05-16T20:07:40.509Z,1.40
2023-05-16T20:10:10.342Z,1.43
2023-05-16T20:12:39.660Z,0.93
2023-05-16T20:15:10.919Z,1.40
2023-05-16T20:17:40.364Z,0.90
2023-05-16T20:20:12.621Z,1.40
2023-05-16T20:22:41.584Z,1.37
2023-05-16T20:25:11.872Z,0.90
2023-05-16T20:27:41.647Z,1.30
2023-05-16T20:30:10.760Z,1.17
2023-05-16T20:32:39.211Z,1.30
2023-05-16T20:35:10.049Z,1.07
2023-05-16T20:37:38.815Z,1.10
2023-05-16T20:40:08.917Z,1.20
2023-05-16T20:42:37.194Z,1.50
2023-05-16T20:45:07.911Z,1.07
2023-05-16T20:47:35.873Z,1.30
2023-05-16T20:50:03.890Z,1.20
2023-05-16T20:52:31.809Z,1.37
2023-05-16T20:55:01.185Z,1.10
2023-05-16T20:57:29.194Z,1.50
2023-05-16T20:59:57.449Z,1.47
2023-05-16T21:02:27.145Z,1.43
2023-05-16T21:04:56.043Z,1.43
2023-05-16T21:07:24.067Z,1.50
2023-05-16T21:09:51.970Z,1.60
2023-05-16T21:12:19.912Z,1.40
2023-05-16T21:14:47.829Z,1.20
2023-05-16T21:17:15.725Z,1.70
2023-05-16T21:19:45.061Z,1.60
2023-05-16T21:22:13.106Z,1.50
2023-05-16T21:24:41.637Z,1.57
2023-05-16T21:27:09.777Z,1.83
2023-05-16T21:29:38.129Z,1.50
2023-05-16T21:32:06.552Z,1.50
2023-05-16T21:34:34.453Z,1.87
2023-05-16T21:37:03.929Z,1.50
2023-05-16T21:39:31.966Z,1.80
2023-05-16T21:42:00.767Z,1.30
2023-05-16T21:44:28.679Z,1.60
2023-05-16T21:46:56.623Z,1.80
2023-05-16T21:49:24.724Z,2.03
2023-05-16T21:51:52.754Z,1.90
2023-05-16T21:54:22.084Z,1.70
2023-05-16T21:56:49.983Z,1.77
2023-05-16T21:59:17.958Z,2.10
2023-05-16T22:01:45.861Z,1.80
2023-05-16T22:04:13.984Z,2.13
2023-05-16T22:06:42.107Z,1.73
2023-05-16T22:09:11.651Z,1.67
2023-05-16T22:11:41.222Z,2.17
2023-05-16T22:14:09.200Z,1.93
2023-05-16T22:16:37.378Z,1.63
2023-05-16T22:19:06.550Z,2.60
2023-05-16T22:21:34.880Z,2.40
2023-05-16T22:24:03.078Z,2.10
2023-05-16T22:26:31.293Z,1.90
2023-05-16T22:29:00.652Z,2.00
2023-05-16T22:31:28.546Z,2.33
2023-05-16T22:33:56.499Z,2.00
2023-05-16T22:36:24.616Z,3.07
2023-05-16T22:38:52.870Z,2.23
2023-05-16T22:41:20.903Z,2.07
2023-05-16T22:43:48.855Z,2.10
2023-05-16T22:46:18.385Z,2.60
2023-05-16T22:48:46.383Z,2.30
2023-05-16T22:51:14.346Z,2.40
2023-05-16T22:53:42.363Z,2.60
2023-05-16T22:56:10.497Z,2.40
2023-05-16T22:58:38.492Z,2.30
2023-05-16T23:01:06.627Z,2.67
2023-05-16T23:03:35.930Z,2.43
2023-05-16T23:06:03.983Z,2.70
2023-05-16T23:08:32.153Z,2.57
2023-05-16T23:11:00.101Z,2.80
2023-05-16T23:13:28.137Z,2.60
2023-05-16T23:15:56.194Z,2.90
2023-05-16T23:18:24.177Z,3.00
2023-05-16T23:20:53.613Z,3.10
2023-05-16T23:23:21.526Z,3.30
2023-05-16T23:25:49.568Z,2.67
2023-05-16T23:28:18.865Z,2.70
2023-05-16T23:30:47.120Z,2.60
2023-05-16T23:33:15.183Z,2.63
2023-05-16T23:35:43.188Z,2.73
2023-05-16T23:38:12.425Z,4.27
2023-05-16T23:40:40.324Z,3.10
2023-05-16T23:43:08.224Z,2.90
2023-05-16T23:45:41.002Z,2.40
2023-05-16T23:48:14.255Z,2.70
2023-05-16T23:50:42.299Z,3.00
2023-05-16T23:53:10.551Z,2.57
2023-05-16T23:55:41.664Z,2.60
2023-05-16T23:58:09.674Z,2.70
